メインページ
METAR-TAF:

METAR-TAF

空港 :

ビクトリア港, ブリティッシュコロンビア州, カナダ

緯度: 48-25N, 経度: 123-20W, 海抜: 5m

現時点の気象観測

当レポートは48分前の16:00(UTC)に作成
無風
気温 14°C
湿度 82%
気圧 1014 hPa
視程: 24.1km
高度2000ftの雲はほとんどない

METAR: CYWH 111600Z 00000KT 15SM FEW020 14/11 A2995 RMK CU1 SLP143

時間: 09:48 (16:48 UTC)

予報

当レポートは1時間38分前の15:10(UTC)に作成
予報は11日の 15時(UTC)から 12日の 02時(UTC)まで有効
変向風 3kt
視程: 10km
高度2000ftの雲はほとんどない
11日の 16時(UTC)から 11日の 18時(UTC)まで徐々に
南/南西の風 10kt
11日の 21時(UTC)から 11日の 23時(UTC)まで徐々に
南西の風 15kt、最大25ktの突風を伴う

TAF: CYWH 111510Z 1115/1202 VRB03KT P6SM FEW020 BECMG 1116/1118 20010KT BECMG 1121/1123 23015G25KT RMK NXT FCST BY 112100Z

4,000以上の空港の気象観測と天気予報(METAR報とTAF報)

利用可能な観測所は地図上に黄色い丸と赤い丸で示す。

丸の上にカーソルを重ねると観測所名を参照できる。

次にクリックすると気象観測と天気予報を参照できる。

マップの切り替え:黒色「×」印の緑ボタンをクリックして拡大、「-」印の緑ボタンをクリックして縮小、緑色の三角印をクリックして隣りの地図に切り替え


METAR-TAF: